createdAt,value
2022-11-17T00:02:14.520Z,4.75
2022-11-17T00:04:41.360Z,6.13
2022-11-17T00:07:08.212Z,4.47
2022-11-17T00:09:35.056Z,5.03
2022-11-17T00:12:22.671Z,6.20
2022-11-17T00:14:49.845Z,4.45
2022-11-17T00:17:16.654Z,9.20
2022-11-17T00:20:02.269Z,4.65
2022-11-17T00:22:31.940Z,5.65
2022-11-17T00:24:58.957Z,5.72
2022-11-17T00:27:25.870Z,4.97
2022-11-17T00:29:52.738Z,5.88
2022-11-17T00:32:38.110Z,8.52
2022-11-17T00:35:05.441Z,7.35
2022-11-17T00:37:59.650Z,6.22
2022-11-17T00:40:26.801Z,5.82
2022-11-17T00:42:53.594Z,5.22
2022-11-17T00:45:20.422Z,5.55
2022-11-17T00:47:47.890Z,6.47
2022-11-17T00:50:14.845Z,5.80
2022-11-17T00:52:42.022Z,8.23
2022-11-17T00:55:09.272Z,8.93
2022-11-17T00:57:36.103Z,7.15
2022-11-17T01:00:03.922Z,11.75
2022-11-17T01:02:30.748Z,10.60
2022-11-17T01:04:57.522Z,11.68
2022-11-17T01:07:24.529Z,13.07
2022-11-17T01:09:51.483Z,12.55
2022-11-17T01:12:18.323Z,14.27
2022-11-17T01:14:45.154Z,15.82
2022-11-17T01:17:11.955Z,14.15
2022-11-17T01:19:38.737Z,14.32
2022-11-17T01:22:05.817Z,14.75
2022-11-17T01:24:32.619Z,13.68
2022-11-17T01:26:59.394Z,11.23
2022-11-17T01:29:26.235Z,14.40
2022-11-17T01:31:53.096Z,9.63
2022-11-17T01:34:20.264Z,8.85
2022-11-17T01:37:05.853Z,11.77
2022-11-17T01:39:32.696Z,8.93
2022-11-17T01:42:02.889Z,8.98
2022-11-17T01:44:35.922Z,7.28
2022-11-17T01:47:04.126Z,7.13
2022-11-17T01:49:31.010Z,8.13
2022-11-17T01:52:01.721Z,7.70
2022-11-17T01:54:29.945Z,8.05
2022-11-17T01:57:05.378Z,8.13
2022-11-17T01:59:43.400Z,7.10
2022-11-17T02:02:10.210Z,6.97
2022-11-17T02:04:41.039Z,8.02
2022-11-17T02:07:20.048Z,7.40
2022-11-17T02:09:47.163Z,7.70
2022-11-17T02:12:14.364Z,10.27
2022-11-17T02:14:41.209Z,6.97
2022-11-17T02:17:13.801Z,6.18
2022-11-17T02:19:42.160Z,4.60
2022-11-17T02:22:08.957Z,2.65
2022-11-17T02:24:54.574Z,2.50
2022-11-17T02:27:21.294Z,3.72
2022-11-17T02:30:10.476Z,1.27
2022-11-17T02:32:56.047Z,2.45
2022-11-17T02:35:26.009Z,0.98
2022-11-17T02:37:57.916Z,1.63
2022-11-17T02:41:00.382Z,1.48
2022-11-17T02:43:50.410Z,0.65
2022-11-17T02:46:19.373Z,0.82
2022-11-17T02:48:54.605Z,1.00
2022-11-17T02:51:22.916Z,0.60
2022-11-17T02:53:51.398Z,0.65
2022-11-17T02:56:18.143Z,1.00
2022-11-17T02:58:46.466Z,0.30
2022-11-17T03:01:22.363Z,0.80
2022-11-17T03:03:55.212Z,0.40
2022-11-17T03:06:40.910Z,2.45
2022-11-17T03:09:14.710Z,0.75
2022-11-17T03:11:50.124Z,0.55
2022-11-17T03:14:19.885Z,1.88
2022-11-17T03:16:55.832Z,1.52
2022-11-17T03:19:28.720Z,1.13
2022-11-17T03:22:14.336Z,1.17
2022-11-17T03:24:49.499Z,0.80
2022-11-17T03:27:21.461Z,1.00
2022-11-17T03:29:50.540Z,1.98
2022-11-17T03:32:18.012Z,1.00
2022-11-17T03:34:49.096Z,2.20
2022-11-17T03:37:17.150Z,1.30
2022-11-17T03:39:47.042Z,2.13
2022-11-17T03:42:18.561Z,1.58
2022-11-17T03:44:47.502Z,2.70
2022-11-17T03:47:15.696Z,2.47
2022-11-17T03:49:45.440Z,2.17
2022-11-17T03:52:12.342Z,3.63
2022-11-17T03:54:39.680Z,2.17
2022-11-17T03:57:25.221Z,2.60
2022-11-17T03:59:55.105Z,2.90
2022-11-17T04:02:22.615Z,1.85
2022-11-17T04:05:08.208Z,3.22
2022-11-17T04:07:36.360Z,3.03
2022-11-17T04:10:04.213Z,2.83
2022-11-17T04:12:49.866Z,3.10
2022-11-17T04:15:35.174Z,2.88
2022-11-17T04:18:02.198Z,5.32
2022-11-17T04:20:35.929Z,2.30
2022-11-17T04:23:11.413Z,3.88
2022-11-17T04:25:57.943Z,2.63
2022-11-17T04:28:37.309Z,3.53
2022-11-17T04:31:17.802Z,3.95
2022-11-17T04:33:46.172Z,5.65
2022-11-17T04:36:13.638Z,3.22
2022-11-17T04:38:44.333Z,2.97
2022-11-17T04:41:30.993Z,4.13
2022-11-17T04:43:57.846Z,5.18
2022-11-17T04:46:25.084Z,3.67
2022-11-17T04:48:55.489Z,4.65
2022-11-17T04:51:22.688Z,4.63
2022-11-17T04:53:49.964Z,5.90
2022-11-17T04:56:18.154Z,3.75
2022-11-17T04:58:44.914Z,6.78
2022-11-17T05:01:14.714Z,4.45
2022-11-17T05:03:41.558Z,4.15
2022-11-17T05:06:09.082Z,5.55
2022-11-17T05:08:36.752Z,5.65
2022-11-17T05:11:23.177Z,3.03
2022-11-17T05:13:50.970Z,3.65
2022-11-17T05:16:37.042Z,4.20
2022-11-17T05:19:04.208Z,3.38
2022-11-17T05:21:31.095Z,3.65
2022-11-17T05:23:58.014Z,4.07
2022-11-17T05:26:29.767Z,6.35
2022-11-17T05:28:57.386Z,3.22
2022-11-17T05:31:24.758Z,5.35
2022-11-17T05:33:51.565Z,2.15
2022-11-17T05:36:18.859Z,3.45
2022-11-17T05:38:46.254Z,3.17
2022-11-17T05:41:13.270Z,3.00
2022-11-17T05:43:40.060Z,3.55
2022-11-17T05:46:06.924Z,3.20
2022-11-17T05:48:33.946Z,3.45
2022-11-17T05:51:00.959Z,5.03
2022-11-17T05:53:28.538Z,2.40
2022-11-17T05:56:08.439Z,4.65
2022-11-17T05:58:36.646Z,3.15
2022-11-17T06:01:04.031Z,3.45
2022-11-17T06:03:34.170Z,4.10
2022-11-17T06:06:01.190Z,2.60
2022-11-17T06:08:29.257Z,4.47
2022-11-17T06:10:56.209Z,1.52
2022-11-17T06:13:26.782Z,3.45
2022-11-17T06:15:54.828Z,2.95
2022-11-17T06:18:24.654Z,1.77
2022-11-17T06:20:53.574Z,1.52
2022-11-17T06:23:22.729Z,3.53
2022-11-17T06:25:49.771Z,2.28
2022-11-17T06:28:18.858Z,2.63
2022-11-17T06:30:45.743Z,2.55
2022-11-17T06:33:14.288Z,2.60
2022-11-17T06:35:41.575Z,3.13
2022-11-17T06:38:08.403Z,2.75
2022-11-17T06:40:35.208Z,1.95
2022-11-17T06:43:20.078Z,3.35
2022-11-17T06:45:48.597Z,2.15
2022-11-17T06:48:16.440Z,3.40
2022-11-17T06:50:43.261Z,1.70
2022-11-17T06:53:11.248Z,4.40
2022-11-17T06:55:38.530Z,2.08
2022-11-17T06:58:06.721Z,3.65
2022-11-17T07:00:34.127Z,2.65
2022-11-17T07:03:01.617Z,4.25
2022-11-17T07:05:28.436Z,2.35
2022-11-17T07:08:02.353Z,4.13
2022-11-17T07:10:29.611Z,2.70
2022-11-17T07:12:56.482Z,2.45
2022-11-17T07:15:23.567Z,3.55
2022-11-17T07:17:50.357Z,3.35
2022-11-17T07:20:17.777Z,6.50
2022-11-17T07:22:45.001Z,3.33
2022-11-17T07:25:12.379Z,4.47
2022-11-17T07:27:39.220Z,4.10
2022-11-17T07:30:06.932Z,4.32
2022-11-17T07:32:34.383Z,3.30
2022-11-17T07:35:02.133Z,3.65
2022-11-17T07:37:32.139Z,5.72
2022-11-17T07:39:59.326Z,6.10
2022-11-17T07:42:26.245Z,3.08
2022-11-17T07:44:53.213Z,3.33
2022-11-17T07:47:20.122Z,3.65
2022-11-17T07:49:46.886Z,5.25
2022-11-17T07:52:13.736Z,3.55
2022-11-17T07:54:40.719Z,3.25
2022-11-17T07:57:07.497Z,4.63
2022-11-17T07:59:34.317Z,5.55
2022-11-17T08:02:01.191Z,4.95
2022-11-17T08:04:28.056Z,5.18
2022-11-17T08:06:54.873Z,4.57
2022-11-17T08:09:21.703Z,5.53
2022-11-17T08:11:48.603Z,4.63
2022-11-17T08:14:15.452Z,5.13
2022-11-17T08:16:42.273Z,4.13
2022-11-17T08:19:11.889Z,3.40
2022-11-17T08:21:38.793Z,6.63
2022-11-17T08:24:05.743Z,4.82
2022-11-17T08:26:32.525Z,3.38
2022-11-17T08:29:01.880Z,4.75
2022-11-17T08:31:28.713Z,6.38
2022-11-17T08:33:55.716Z,5.72
2022-11-17T08:36:22.593Z,5.05
2022-11-17T08:38:49.343Z,5.55
2022-11-17T08:41:16.163Z,4.50
2022-11-17T08:43:42.978Z,3.85
2022-11-17T08:46:13.574Z,3.00
2022-11-17T08:48:40.472Z,6.22
2022-11-17T08:51:08.198Z,4.15
2022-11-17T08:53:35.119Z,4.32
2022-11-17T08:56:01.871Z,5.40
2022-11-17T08:58:28.666Z,5.97
2022-11-17T09:00:58.605Z,4.63
2022-11-17T09:03:28.334Z,6.97
2022-11-17T09:05:55.137Z,8.48
2022-11-17T09:08:44.360Z,4.57
2022-11-17T09:11:09.956Z,5.22
2022-11-17T09:13:37.590Z,4.90
2022-11-17T09:16:05.467Z,8.88
2022-11-17T09:18:32.317Z,4.50
2022-11-17T09:21:09.637Z,7.43
2022-11-17T09:23:36.787Z,4.68
2022-11-17T09:26:04.772Z,7.00
2022-11-17T09:28:31.884Z,6.55
2022-11-17T09:31:01.335Z,4.78
2022-11-17T09:33:28.875Z,8.02
2022-11-17T09:35:56.929Z,4.03
2022-11-17T09:38:23.735Z,4.55
2022-11-17T09:40:50.618Z,3.97
2022-11-17T09:43:25.608Z,4.70
2022-11-17T09:45:54.367Z,4.55
2022-11-17T09:48:40.803Z,4.20
2022-11-17T09:51:11.335Z,4.70
2022-11-17T09:53:38.312Z,3.88
2022-11-17T09:56:07.841Z,4.97
2022-11-17T09:58:38.795Z,5.60
2022-11-17T10:01:06.363Z,4.60
2022-11-17T10:03:40.265Z,5.93
2022-11-17T10:06:13.053Z,5.03
2022-11-17T10:08:46.828Z,4.38
2022-11-17T10:11:43.998Z,5.00
2022-11-17T10:14:15.282Z,4.97
2022-11-17T10:16:43.543Z,4.93
2022-11-17T10:19:10.326Z,4.38
2022-11-17T10:21:37.702Z,3.47
2022-11-17T10:24:04.669Z,7.00
2022-11-17T10:26:43.919Z,5.57
2022-11-17T10:29:13.028Z,3.92
2022-11-17T10:31:48.833Z,3.50
2022-11-17T10:34:38.851Z,4.53
2022-11-17T10:37:13.800Z,4.18
2022-11-17T10:39:41.986Z,4.80
2022-11-17T10:42:20.763Z,4.63
2022-11-17T10:44:52.436Z,4.75
2022-11-17T10:47:39.766Z,6.72
2022-11-17T10:50:13.031Z,3.53
2022-11-17T10:52:39.856Z,3.88
2022-11-17T10:55:19.432Z,5.70
2022-11-17T10:57:47.996Z,3.65
2022-11-17T11:00:44.115Z,4.72
2022-11-17T11:03:10.856Z,5.28
2022-11-17T11:05:37.647Z,3.65
2022-11-17T11:08:19.689Z,6.70
2022-11-17T11:10:48.745Z,4.65
2022-11-17T11:13:24.777Z,3.47
2022-11-17T11:15:53.248Z,8.85
2022-11-17T11:18:20.716Z,3.30
2022-11-17T11:20:54.486Z,5.55
2022-11-17T11:23:29.473Z,6.47
2022-11-17T11:26:02.909Z,4.22
2022-11-17T11:28:38.959Z,5.07
2022-11-17T11:31:17.194Z,4.90
2022-11-17T11:33:53.788Z,5.20
2022-11-17T11:36:35.858Z,3.60
2022-11-17T11:39:05.450Z,3.88
2022-11-17T11:41:38.307Z,2.85
2022-11-17T11:44:22.967Z,4.18
2022-11-17T11:46:52.901Z,4.07
2022-11-17T11:49:28.816Z,4.28
2022-11-17T11:51:55.694Z,2.58
2022-11-17T11:54:37.166Z,3.97
2022-11-17T11:57:09.238Z,5.75
2022-11-17T11:59:51.406Z,3.63
2022-11-17T12:02:38.504Z,4.07
2022-11-17T12:05:05.544Z,3.15
2022-11-17T12:07:44.623Z,2.38
2022-11-17T12:10:11.377Z,3.65
2022-11-17T12:12:39.618Z,3.42
2022-11-17T12:15:07.810Z,3.15
2022-11-17T12:17:34.590Z,4.45
2022-11-17T12:20:09.239Z,5.32
2022-11-17T12:22:36.233Z,4.72
2022-11-17T12:25:14.981Z,4.28
2022-11-17T12:27:52.665Z,2.50
2022-11-17T12:30:34.355Z,4.22
2022-11-17T12:33:01.784Z,2.50
2022-11-17T12:35:32.846Z,2.92
2022-11-17T12:38:18.209Z,3.55
2022-11-17T12:40:44.956Z,2.75
2022-11-17T12:43:14.803Z,2.30
2022-11-17T12:45:53.982Z,2.25
2022-11-17T12:48:33.441Z,2.45
2022-11-17T12:51:04.911Z,2.05
2022-11-17T12:53:52.217Z,1.70
2022-11-17T12:56:41.763Z,3.03
2022-11-17T12:59:38.009Z,4.03
2022-11-17T13:02:17.815Z,1.80
2022-11-17T13:04:49.598Z,4.18
2022-11-17T13:07:23.952Z,3.10
2022-11-17T13:09:56.926Z,1.90
2022-11-17T13:12:28.228Z,2.80
2022-11-17T13:14:56.314Z,2.47
2022-11-17T13:17:27.521Z,2.75
2022-11-17T13:19:58.593Z,2.67
2022-11-17T13:22:25.398Z,5.28
2022-11-17T13:24:53.913Z,2.33
2022-11-17T13:27:27.904Z,1.95
2022-11-17T13:30:12.989Z,2.50
2022-11-17T13:32:40.560Z,2.83
2022-11-17T13:35:19.181Z,2.65
2022-11-17T13:37:46.236Z,3.15
2022-11-17T13:40:19.893Z,2.33
2022-11-17T13:42:47.113Z,2.25
2022-11-17T13:45:14.771Z,2.95
2022-11-17T13:47:46.590Z,2.38
2022-11-17T13:50:31.696Z,1.80
2022-11-17T13:53:24.886Z,1.55
2022-11-17T13:55:52.338Z,1.70
2022-11-17T13:58:26.909Z,1.60
2022-11-17T14:00:56.106Z,1.80
2022-11-17T14:03:36.611Z,2.25
2022-11-17T14:06:07.807Z,2.35
2022-11-17T14:08:35.136Z,2.80
2022-11-17T14:11:14.535Z,2.85
2022-11-17T14:13:41.412Z,2.65
2022-11-17T14:16:26.957Z,4.13
2022-11-17T14:19:01.412Z,2.65
2022-11-17T14:21:29.168Z,4.80
2022-11-17T14:24:04.168Z,3.33
2022-11-17T14:26:31.263Z,2.20
2022-11-17T14:29:02.287Z,3.22
2022-11-17T14:31:29.898Z,2.35
2022-11-17T14:33:56.848Z,2.53
2022-11-17T14:36:23.860Z,2.67
2022-11-17T14:38:50.825Z,2.92
2022-11-17T14:41:18.524Z,2.90
2022-11-17T14:43:45.537Z,1.52
2022-11-17T14:46:23.141Z,1.30
2022-11-17T14:48:50.219Z,2.25
2022-11-17T14:51:19.229Z,4.88
2022-11-17T14:53:46.722Z,3.38
2022-11-17T14:56:18.199Z,2.28
2022-11-17T15:01:13.339Z,1.90
2022-11-17T15:03:40.167Z,2.42
2022-11-17T15:06:07.862Z,2.33
2022-11-17T15:08:34.938Z,3.08
2022-11-17T15:11:02.210Z,2.67
2022-11-17T15:13:29.058Z,1.75
2022-11-17T15:16:03.172Z,3.35
2022-11-17T15:18:30.055Z,3.13
2022-11-17T15:21:00.540Z,1.52
2022-11-17T15:23:27.619Z,3.28
2022-11-17T15:25:54.412Z,2.92
2022-11-17T15:28:23.009Z,2.40
2022-11-17T15:30:50.069Z,1.92
2022-11-17T15:33:16.821Z,1.63
2022-11-17T15:35:43.580Z,2.25
2022-11-17T15:38:10.335Z,2.65
2022-11-17T15:40:37.158Z,2.78
2022-11-17T15:43:05.775Z,2.50
2022-11-17T15:45:33.515Z,2.38
2022-11-17T15:48:00.420Z,3.78
2022-11-17T15:50:27.421Z,2.55
2022-11-17T15:53:04.115Z,4.28
2022-11-17T15:55:33.649Z,2.65
2022-11-17T15:58:00.469Z,2.13
2022-11-17T16:00:27.336Z,3.58
2022-11-17T16:02:58.438Z,3.20
2022-11-17T16:05:25.480Z,2.65
2022-11-17T16:07:52.324Z,4.68
2022-11-17T16:10:19.065Z,4.82
2022-11-17T16:12:45.853Z,5.88
2022-11-17T16:15:12.611Z,7.03
2022-11-17T16:17:39.381Z,2.50
2022-11-17T16:20:06.556Z,2.40
2022-11-17T16:22:33.349Z,4.28
2022-11-17T16:25:00.166Z,4.90
2022-11-17T16:27:26.972Z,3.95
2022-11-17T16:29:53.731Z,4.72
2022-11-17T16:32:20.514Z,4.07
2022-11-17T16:34:49.222Z,2.63
2022-11-17T16:37:16.171Z,3.80
2022-11-17T16:39:42.997Z,3.60
2022-11-17T16:42:09.789Z,3.78
2022-11-17T16:44:36.691Z,3.72
2022-11-17T16:47:03.498Z,3.63
2022-11-17T16:49:32.165Z,3.15
2022-11-17T16:51:58.941Z,5.00
2022-11-17T16:54:25.730Z,3.40
2022-11-17T16:56:52.716Z,2.50
2022-11-17T16:59:19.708Z,2.63
2022-11-17T17:01:47.624Z,3.13
2022-11-17T17:04:14.477Z,3.35
2022-11-17T17:06:45.934Z,3.95
2022-11-17T17:09:14.404Z,3.25
2022-11-17T17:11:41.698Z,4.97
2022-11-17T17:14:09.419Z,3.58
2022-11-17T17:16:36.837Z,2.55
2022-11-17T17:19:07.555Z,4.47
2022-11-17T17:21:34.886Z,3.55
2022-11-17T17:24:01.781Z,3.08
2022-11-17T17:26:32.839Z,3.15
2022-11-17T17:29:00.403Z,3.55
2022-11-17T17:31:32.047Z,4.03
2022-11-17T17:34:02.399Z,3.28
2022-11-17T17:36:29.260Z,3.92
2022-11-17T17:38:57.237Z,4.97
2022-11-17T17:41:25.270Z,5.13
2022-11-17T17:43:56.819Z,5.90
2022-11-17T17:48:51.721Z,6.82
2022-11-17T17:51:20.107Z,3.50
2022-11-17T17:53:52.412Z,3.10
2022-11-17T17:56:20.232Z,3.78
2022-11-17T17:58:51.107Z,2.72
2022-11-17T18:01:22.792Z,2.67
2022-11-17T18:03:52.927Z,2.88
2022-11-17T18:06:21.171Z,3.60
2022-11-17T18:08:48.469Z,3.72
2022-11-17T18:11:17.096Z,3.10
2022-11-17T18:13:44.816Z,2.88
2022-11-17T18:16:13.190Z,4.35
2022-11-17T18:18:40.614Z,4.35
2022-11-17T18:21:09.984Z,3.50
2022-11-17T18:23:37.406Z,3.65
2022-11-17T18:26:09.058Z,4.07
2022-11-17T18:28:36.242Z,3.67
2022-11-17T18:31:03.545Z,2.60
2022-11-17T18:33:30.416Z,3.22
2022-11-17T18:35:57.478Z,4.68
2022-11-17T18:38:24.343Z,4.72
2022-11-17T18:40:54.383Z,3.70
2022-11-17T18:43:23.596Z,5.07
2022-11-17T18:45:50.358Z,4.00
2022-11-17T18:48:17.162Z,4.22
2022-11-17T18:51:12.289Z,4.63
2022-11-17T18:53:31.810Z,4.53
2022-11-17T18:56:02.469Z,3.95
2022-11-17T18:58:29.700Z,4.32
2022-11-17T19:00:57.283Z,3.88
2022-11-17T19:03:24.569Z,4.63
2022-11-17T19:05:51.441Z,5.55
2022-11-17T19:08:18.647Z,6.43
2022-11-17T19:10:54.829Z,3.38
2022-11-17T19:13:21.728Z,6.15
2022-11-17T19:15:51.903Z,3.05
2022-11-17T19:18:19.117Z,4.18
2022-11-17T19:20:46.175Z,4.20
2022-11-17T19:23:13.333Z,5.95
2022-11-17T19:25:40.918Z,3.30
2022-11-17T19:28:11.006Z,5.30
2022-11-17T19:30:37.952Z,3.70
2022-11-17T19:33:04.767Z,5.38
2022-11-17T19:35:31.584Z,3.15
2022-11-17T19:37:58.471Z,3.83
2022-11-17T19:40:25.296Z,5.72
2022-11-17T19:42:52.120Z,3.95
2022-11-17T19:45:18.944Z,5.82
2022-11-17T19:47:45.719Z,4.35
2022-11-17T19:50:12.539Z,3.83
2022-11-17T19:52:39.279Z,3.90
2022-11-17T19:55:06.121Z,4.18
2022-11-17T19:57:32.919Z,5.60
2022-11-17T19:59:59.732Z,4.85
2022-11-17T20:02:26.507Z,7.20
2022-11-17T20:04:53.297Z,3.65
2022-11-17T20:07:23.248Z,5.32
2022-11-17T20:09:50.074Z,4.88
2022-11-17T20:12:17.520Z,6.00
2022-11-17T20:14:44.360Z,4.88
2022-11-17T20:17:11.111Z,5.78
2022-11-17T20:19:37.920Z,5.97
2022-11-17T20:22:07.343Z,4.57
2022-11-17T20:24:38.302Z,4.60
2022-11-17T20:27:05.115Z,4.60
2022-11-17T20:29:31.909Z,6.07
2022-11-17T20:31:58.685Z,4.82
2022-11-17T20:34:25.557Z,5.22
2022-11-17T20:36:52.373Z,4.38
2022-11-17T20:39:19.417Z,5.13
2022-11-17T20:41:46.304Z,5.10
2022-11-17T20:44:24.081Z,5.47
2022-11-17T20:49:18.209Z,5.43
2022-11-17T20:51:45.357Z,5.38
2022-11-17T20:54:13.239Z,4.10
2022-11-17T20:56:40.497Z,4.90
2022-11-17T20:59:07.604Z,4.70
2022-11-17T21:01:34.786Z,5.32
2022-11-17T21:04:01.961Z,4.55
2022-11-17T21:06:29.661Z,4.03
2022-11-17T21:08:56.608Z,3.92
2022-11-17T21:11:42.663Z,4.63
2022-11-17T21:14:10.877Z,5.85
2022-11-17T21:16:38.918Z,3.60
2022-11-17T21:19:08.809Z,6.72
2022-11-17T21:21:35.869Z,4.57
2022-11-17T21:24:02.685Z,5.22
2022-11-17T21:26:29.872Z,5.38
2022-11-17T21:29:00.442Z,7.03
2022-11-17T21:31:30.871Z,6.43
2022-11-17T21:33:58.892Z,5.43
2022-11-17T21:36:26.741Z,4.00
2022-11-17T21:38:55.855Z,4.28
2022-11-17T21:41:30.284Z,4.03
2022-11-17T21:44:00.738Z,5.63
2022-11-17T21:46:28.861Z,3.30
2022-11-17T21:48:56.888Z,5.57
2022-11-17T21:51:25.636Z,3.85
2022-11-17T21:53:53.459Z,4.00
2022-11-17T21:56:20.662Z,5.22
2022-11-17T21:58:47.500Z,3.38
2022-11-17T22:01:15.610Z,4.00
2022-11-17T22:03:42.849Z,5.85
2022-11-17T22:06:13.879Z,4.75
2022-11-17T22:08:41.822Z,7.00
2022-11-17T22:11:10.099Z,3.78
2022-11-17T22:13:37.176Z,5.82
2022-11-17T22:16:11.779Z,2.67
2022-11-17T22:18:39.025Z,4.68
2022-11-17T22:21:06.853Z,2.50
2022-11-17T22:23:33.827Z,3.85
2022-11-17T22:26:02.661Z,2.10
2022-11-17T22:28:30.191Z,4.45
2022-11-17T22:30:57.075Z,2.78
2022-11-17T22:33:24.346Z,3.03
2022-11-17T22:35:51.204Z,3.60
2022-11-17T22:38:17.985Z,5.18
2022-11-17T22:40:45.161Z,5.50
2022-11-17T22:43:15.322Z,3.38
2022-11-17T22:45:42.751Z,2.97
2022-11-17T22:48:09.688Z,5.78
2022-11-17T22:50:36.504Z,4.15
2022-11-17T22:53:03.471Z,4.05
2022-11-17T22:55:30.491Z,3.20
2022-11-17T22:57:57.329Z,6.47
2022-11-17T23:00:24.246Z,5.72
2022-11-17T23:02:51.090Z,5.28
2022-11-17T23:05:18.097Z,6.13
2022-11-17T23:07:44.989Z,6.95
2022-11-17T23:10:12.058Z,3.38
2022-11-17T23:12:38.910Z,5.18
2022-11-17T23:15:06.384Z,5.18
2022-11-17T23:17:33.200Z,4.43
2022-11-17T23:19:59.980Z,3.45
2022-11-17T23:22:27.196Z,6.07
2022-11-17T23:24:53.993Z,5.43
2022-11-17T23:27:20.755Z,5.68
2022-11-17T23:29:47.553Z,3.83
2022-11-17T23:32:14.381Z,3.88
2022-11-17T23:34:41.141Z,3.38
2022-11-17T23:37:07.978Z,4.28
2022-11-17T23:39:34.733Z,6.28
2022-11-17T23:42:01.561Z,1.85
2022-11-17T23:44:28.385Z,5.38
2022-11-17T23:46:55.383Z,2.65
2022-11-17T23:49:22.287Z,5.32
2022-11-17T23:51:49.061Z,4.85
2022-11-17T23:54:15.844Z,4.53
2022-11-17T23:56:43.089Z,4.43
2022-11-17T23:59:10.129Z,4.40
